Time;durP1;ratioP1;P1;durP2;ratioP2;P2;SDS_P1;SDS_P2;PMS_P1;PMS_P2;Temp;Humidity;BMP_temperature;BMP_pressure;BME280_temperature;BME280_humidity;BME280_pressure;Samples;Min_cycle;Max_cycle;Signal;HPM_P1;HPM_P2
2023/03/10 00:01:28;;;;;;;0.30;0.30;;;11.60;78.90;;;;;;4978883;28;20197;-78
2023/03/10 00:03:56;;;;;;;0.30;0.30;;;11.60;79.30;;;;;;4979221;28;20237;-75
2023/03/10 00:06:27;;;;;;;0.50;0.40;;;11.60;79.40;;;;;;4985717;28;20232;-76
2023/03/10 00:08:53;;;;;;;1.38;0.20;;;11.50;79.50;;;;;;4973926;28;20261;-75
2023/03/10 00:11:20;;;;;;;0.20;0.20;;;11.50;79.60;;;;;;4975519;28;20203;-76
2023/03/10 00:13:45;;;;;;;0.40;0.40;;;11.50;79.80;;;;;;4976753;28;20189;-76
2023/03/10 00:16:17;;;;;;;0.28;0.28;;;11.50;80.40;;;;;;4980009;28;20193;-76
2023/03/10 00:18:45;;;;;;;0.30;0.30;;;11.50;80.10;;;;;;4976681;28;20214;-76
2023/03/10 00:21:17;;;;;;;0.30;0.30;;;11.40;80.20;;;;;;4992718;28;20188;-76
2023/03/10 00:23:43;;;;;;;0.30;0.30;;;11.50;80.30;;;;;;4991270;28;20595;-76
2023/03/10 00:26:11;;;;;;;0.20;0.20;;;11.50;80.40;;;;;;4991257;28;20194;-76
2023/03/10 00:28:37;;;;;;;0.20;0.20;;;11.40;80.30;;;;;;4990276;28;20181;-76
2023/03/10 00:31:06;;;;;;;0.28;0.28;;;11.50;80.40;;;;;;4986536;28;21400;-76
2023/03/10 00:33:33;;;;;;;0.40;0.40;;;11.40;80.60;;;;;;4984180;28;20221;-77
2023/03/10 00:36:06;;;;;;;0.60;0.60;;;11.40;80.90;;;;;;4977532;28;20182;-76
2023/03/10 00:38:33;;;;;;;0.90;0.60;;;11.40;80.70;;;;;;4985734;28;20248;-76
2023/03/10 00:41:00;;;;;;;0.40;0.40;;;11.40;80.80;;;;;;4990659;28;20189;-76
2023/03/10 00:43:27;;;;;;;0.40;0.40;;;11.40;81.10;;;;;;4992013;28;20209;-77
2023/03/10 00:45:52;;;;;;;0.35;0.35;;;11.40;81.60;;;;;;4989281;28;20196;-76
2023/03/10 00:48:18;;;;;;;0.63;0.50;;;11.30;81.50;;;;;;4991230;28;20197;-76
2023/03/10 00:50:44;;;;;;;0.70;0.60;;;11.30;81.90;;;;;;4997195;28;20186;-77
2023/03/10 00:53:09;;;;;;;0.40;0.40;;;11.30;82.00;;;;;;4991603;28;20185;-77
2023/03/10 00:55:35;;;;;;;1.10;0.40;;;11.20;82.30;;;;;;4993946;28;20216;-76
2023/03/10 00:58:01;;;;;;;0.50;0.50;;;11.20;82.40;;;;;;4980339;28;20189;-76
2023/03/10 01:00:26;;;;;;;1.95;0.47;;;11.20;82.80;;;;;;4981487;28;20269;-77
2023/03/10 01:02:52;;;;;;;0.50;0.50;;;11.10;82.80;;;;;;4980140;28;20221;-76
2023/03/10 01:05:18;;;;;;;0.50;0.50;;;11.10;82.90;;;;;;4978805;28;20188;-76
2023/03/10 01:07:44;;;;;;;0.77;0.77;;;11.00;83.00;;;;;;4982630;28;20193;-76
2023/03/10 01:10:11;;;;;;;0.30;0.30;;;11.00;83.20;;;;;;4966667;28;20185;-76
2023/03/10 01:12:37;;;;;;;0.50;0.50;;;10.90;82.90;;;;;;4978934;28;20194;-76
2023/03/10 01:15:03;;;;;;;0.35;0.30;;;10.90;83.10;;;;;;4977774;28;20233;-76
2023/03/10 01:17:29;;;;;;;0.38;0.38;;;10.90;83.10;;;;;;4978444;28;20669;-76
2023/03/10 01:19:54;;;;;;;0.40;0.40;;;10.90;83.00;;;;;;4982451;28;20251;-76
2023/03/10 01:22:20;;;;;;;0.20;0.20;;;10.90;83.00;;;;;;4979841;28;20197;-76
2023/03/10 01:24:46;;;;;;;0.45;0.45;;;10.90;83.30;;;;;;4979661;28;20193;-76
2023/03/10 01:27:11;;;;;;;0.63;0.40;;;10.80;83.40;;;;;;4979365;28;20317;-76
2023/03/10 01:29:37;;;;;;;0.73;0.30;;;10.80;83.60;;;;;;4962855;28;20201;-76
2023/03/10 01:32:03;;;;;;;0.38;0.38;;;10.70;83.40;;;;;;4980418;28;20222;-76
2023/03/10 01:34:28;;;;;;;0.90;0.40;;;10.70;83.60;;;;;;4978728;28;20181;-76
2023/03/10 01:36:54;;;;;;;0.30;0.30;;;10.70;83.70;;;;;;4979747;28;20214;-76
2023/03/10 01:39:20;;;;;;;0.30;0.30;;;10.60;84.10;;;;;;4981261;28;20214;-76
2023/03/10 01:41:45;;;;;;;0.35;0.35;;;10.60;84.00;;;;;;4985141;28;20181;-77
2023/03/10 01:44:18;;;;;;;0.40;0.40;;;10.50;84.00;;;;;;4978716;28;20268;-75
2023/03/10 01:46:48;;;;;;;0.30;0.30;;;10.50;84.30;;;;;;4981919;28;20204;-77
2023/03/10 01:49:23;;;;;;;0.68;0.50;;;10.50;84.30;;;;;;4985220;28;20193;-77
2023/03/10 01:52:15;;;;;;;1.08;0.45;;;10.50;84.60;;;;;;4985993;28;20301;-77
2023/03/10 01:55:01;;;;;;;0.30;0.30;;;10.50;84.50;;;;;;4983093;28;20691;-77
2023/03/10 01:57:31;;;;;;;0.50;0.50;;;10.40;84.60;;;;;;4988419;28;20201;-77
2023/03/10 01:59:58;;;;;;;0.47;0.35;;;10.40;84.50;;;;;;4986075;28;20235;-77
2023/03/10 02:02:25;;;;;;;0.35;0.35;;;10.40;84.70;;;;;;4979163;28;20261;-77
2023/03/10 02:04:52;;;;;;;0.63;0.47;;;10.30;84.50;;;;;;4977765;28;20186;-76
2023/03/10 02:07:22;;;;;;;0.45;0.45;;;10.30;84.70;;;;;;4959922;28;20224;-76
2023/03/10 02:09:49;;;;;;;0.60;0.60;;;10.30;84.80;;;;;;4982613;28;20189;-76
2023/03/10 02:12:15;;;;;;;1.27;0.40;;;10.30;84.60;;;;;;4978171;28;20174;-76
2023/03/10 02:14:46;;;;;;;0.57;0.35;;;10.30;85.10;;;;;;4980458;28;20229;-76
2023/03/10 02:17:15;;;;;;;0.40;0.40;;;10.30;85.20;;;;;;4976188;28;20182;-76
2023/03/10 02:20:19;;;;;;;0.30;0.30;;;10.30;84.90;;;;;;4963383;28;20213;-76
2023/03/10 02:22:46;;;;;;;0.50;0.50;;;10.30;84.60;;;;;;4962534;28;20185;-76
2023/03/10 02:25:25;;;;;;;0.50;0.40;;;10.30;84.90;;;;;;4977670;28;20197;-76
2023/03/10 02:27:51;;;;;;;2.15;0.50;;;10.20;85.10;;;;;;4981650;28;20215;-76
2023/03/10 02:30:37;;;;;;;0.52;0.52;;;10.20;85.00;;;;;;4976310;28;20193;-76
2023/03/10 02:33:11;;;;;;;0.68;0.60;;;10.20;84.70;;;;;;4979608;28;20185;-76
2023/03/10 02:35:37;;;;;;;0.52;0.47;;;10.10;85.40;;;;;;4978985;28;20660;-77
2023/03/10 02:38:03;;;;;;;0.47;0.47;;;10.10;85.20;;;;;;4989225;28;20198;-75
2023/03/10 02:40:39;;;;;;;0.85;0.60;;;10.10;85.40;;;;;;4992555;28;20212;-77
2023/03/10 02:43:27;;;;;;;0.35;0.35;;;10.10;85.40;;;;;;4984871;28;20190;-77
2023/03/10 02:45:58;;;;;;;0.50;0.50;;;10.10;85.40;;;;;;4983956;28;20272;-77
2023/03/10 02:48:30;;;;;;;0.65;0.40;;;10.00;85.60;;;;;;4979656;28;20178;-77
2023/03/10 02:50:57;;;;;;;0.43;0.43;;;10.00;85.80;;;;;;4980490;28;20182;-75
2023/03/10 02:53:26;;;;;;;0.85;0.43;;;10.00;85.80;;;;;;4978111;28;20221;-76
2023/03/10 02:55:52;;;;;;;0.50;0.50;;;10.00;86.00;;;;;;4975833;28;20209;-76
2023/03/10 02:58:19;;;;;;;0.40;0.40;;;10.00;86.00;;;;;;4975215;28;20937;-76
2023/03/10 03:00:47;;;;;;;0.45;0.45;;;10.10;86.00;;;;;;4975407;28;20552;-76
2023/03/10 03:03:14;;;;;;;0.57;0.57;;;10.10;85.70;;;;;;4974168;28;20193;-76
2023/03/10 03:05:40;;;;;;;0.55;0.40;;;10.10;85.90;;;;;;4978660;28;20185;-76
2023/03/10 03:08:07;;;;;;;0.63;0.63;;;10.10;86.00;;;;;;4979826;28;20190;-76
2023/03/10 03:10:34;;;;;;;0.63;0.63;;;10.10;86.00;;;;;;4977998;28;20186;-75
2023/03/10 03:13:00;;;;;;;1.27;0.68;;;10.20;86.10;;;;;;4977908;28;20190;-75
2023/03/10 03:15:26;;;;;;;0.38;0.38;;;10.20;86.00;;;;;;4978444;28;20268;-75
2023/03/10 03:17:53;;;;;;;0.80;0.80;;;10.30;85.80;;;;;;4976700;28;20188;-75
2023/03/10 03:20:20;;;;;;;0.50;0.50;;;10.30;85.60;;;;;;4975443;28;20604;-75
2023/03/10 03:22:47;;;;;;;0.40;0.40;;;10.30;85.50;;;;;;4973801;28;20237;-75
2023/03/10 03:25:16;;;;;;;0.70;0.70;;;10.40;85.30;;;;;;4977110;28;20570;-75
2023/03/10 03:27:42;;;;;;;0.40;0.40;;;10.40;85.10;;;;;;4976369;28;20190;-76
2023/03/10 03:30:30;;;;;;;0.47;0.47;;;10.40;84.90;;;;;;4980004;28;20191;-76
2023/03/10 03:32:56;;;;;;;0.93;0.70;;;10.40;84.80;;;;;;4978542;28;20205;-76
2023/03/10 03:35:29;;;;;;;0.55;0.52;;;10.40;84.60;;;;;;4975730;28;20681;-76
2023/03/10 03:37:55;;;;;;;0.60;0.60;;;10.40;84.70;;;;;;4977164;28;20190;-76
2023/03/10 03:40:22;;;;;;;0.88;0.77;;;10.40;84.80;;;;;;4959981;28;20178;-75
2023/03/10 03:42:50;;;;;;;0.68;0.60;;;10.30;84.90;;;;;;4977887;28;20184;-76
2023/03/10 03:45:18;;;;;;;0.82;0.70;;;10.30;85.10;;;;;;4981891;28;20260;-76
2023/03/10 03:47:44;;;;;;;0.60;0.60;;;10.30;85.30;;;;;;4983735;28;20196;-76
2023/03/10 03:50:13;;;;;;;0.50;0.50;;;10.30;85.30;;;;;;4984402;28;20186;-77
2023/03/10 03:52:40;;;;;;;0.90;0.70;;;10.30;85.50;;;;;;4989958;28;20833;-77
2023/03/10 03:55:08;;;;;;;0.70;0.65;;;10.40;85.60;;;;;;4988446;28;20210;-77
2023/03/10 03:57:34;;;;;;;0.50;0.47;;;10.40;85.60;;;;;;4979692;28;20177;-76
2023/03/10 04:00:00;;;;;;;0.50;0.50;;;10.40;85.70;;;;;;4973024;28;20213;-76
2023/03/10 04:02:26;;;;;;;1.02;0.68;;;10.40;85.60;;;;;;4983780;28;20178;-75
2023/03/10 04:04:53;;;;;;;0.50;0.50;;;10.50;85.50;;;;;;4976876;28;20194;-76
2023/03/10 04:07:19;;;;;;;0.98;0.70;;;10.50;85.50;;;;;;4980379;28;20178;-76
2023/03/10 04:09:45;;;;;;;1.08;0.60;;;10.50;85.40;;;;;;4977399;28;20200;-75
2023/03/10 04:12:11;;;;;;;0.60;0.52;;;10.60;85.20;;;;;;4976018;28;20181;-76
2023/03/10 04:14:36;;;;;;;0.52;0.52;;;10.60;85.00;;;;;;4977725;28;20876;-76
2023/03/10 04:17:04;;;;;;;0.57;0.57;;;10.60;85.20;;;;;;4974577;28;20202;-76
2023/03/10 04:19:30;;;;;;;0.50;0.50;;;10.60;85.30;;;;;;4979457;28;20307;-76
2023/03/10 04:21:56;;;;;;;0.47;0.47;;;10.70;85.40;;;;;;4978657;28;20197;-76
2023/03/10 04:24:21;;;;;;;0.45;0.45;;;10.70;85.30;;;;;;4979482;28;20185;-76
2023/03/10 04:26:47;;;;;;;2.28;0.60;;;10.70;85.10;;;;;;4976002;28;20182;-76
2023/03/10 04:29:13;;;;;;;0.60;0.60;;;10.70;85.00;;;;;;4976747;28;20193;-76
2023/03/10 04:31:39;;;;;;;0.43;0.43;;;10.70;84.90;;;;;;4977195;28;20189;-76
2023/03/10 04:34:04;;;;;;;0.65;0.65;;;10.70;84.80;;;;;;4977670;28;20185;-76
2023/03/10 04:36:30;;;;;;;1.70;0.80;;;10.70;84.90;;;;;;4980602;28;21073;-76
2023/03/10 04:38:56;;;;;;;0.57;0.57;;;10.70;85.00;;;;;;4982234;28;20718;-77
2023/03/10 04:41:22;;;;;;;0.68;0.55;;;10.70;85.00;;;;;;4976001;28;20190;-75
2023/03/10 04:43:48;;;;;;;0.57;0.57;;;10.70;85.10;;;;;;4973801;28;20260;-76
2023/03/10 04:46:14;;;;;;;0.65;0.52;;;10.70;85.30;;;;;;4974708;28;20197;-76
2023/03/10 04:48:40;;;;;;;1.17;1.17;;;10.60;85.30;;;;;;4979128;28;20185;-76
2023/03/10 04:51:09;;;;;;;1.13;0.73;;;10.60;85.40;;;;;;4976966;28;20187;-76
2023/03/10 04:53:35;;;;;;;0.70;0.60;;;10.60;85.40;;;;;;4991479;28;20185;-77
2023/03/10 04:56:03;;;;;;;0.50;0.50;;;10.60;85.30;;;;;;4989221;28;20181;-77
2023/03/10 04:58:30;;;;;;;0.57;0.57;;;10.60;85.30;;;;;;4989610;28;20221;-77
2023/03/10 05:00:56;;;;;;;1.98;0.70;;;10.50;85.40;;;;;;4990090;28;20184;-77
2023/03/10 05:03:22;;;;;;;1.50;0.82;;;10.50;85.40;;;;;;4984471;28;20549;-76
2023/03/10 05:05:47;;;;;;;0.68;0.68;;;10.50;85.50;;;;;;4990302;28;20189;-77
2023/03/10 05:08:13;;;;;;;0.70;0.70;;;10.50;85.50;;;;;;4985911;28;20194;-76
2023/03/10 05:10:41;;;;;;;0.70;0.70;;;10.40;85.50;;;;;;4979530;28;20309;-76
2023/03/10 05:13:11;;;;;;;2.10;1.17;;;10.40;85.60;;;;;;4977148;28;20182;-76
2023/03/10 05:15:40;;;;;;;2.92;1.02;;;10.40;85.70;;;;;;4975110;28;20178;-76
2023/03/10 05:18:07;;;;;;;1.27;0.75;;;10.40;85.80;;;;;;4979469;28;20307;-76
2023/03/10 05:20:33;;;;;;;2.50;1.23;;;10.40;86.00;;;;;;4957133;28;20663;-76
2023/03/10 05:22:58;;;;;;;0.93;0.93;;;10.30;86.30;;;;;;4975856;28;20186;-75
2023/03/10 05:25:24;;;;;;;1.13;1.00;;;10.30;86.40;;;;;;4975188;28;20193;-76
2023/03/10 05:27:50;;;;;;;4.97;1.13;;;10.30;86.60;;;;;;4976033;28;20194;-78
2023/03/10 05:30:16;;;;;;;1.25;0.88;;;10.30;86.60;;;;;;4978818;28;20207;-77
2023/03/10 05:32:43;;;;;;;1.08;1.08;;;10.30;86.40;;;;;;4980290;28;21499;-78
2023/03/10 05:35:10;;;;;;;2.72;1.23;;;10.30;86.40;;;;;;4981139;28;20201;-77
2023/03/10 05:37:40;;;;;;;1.95;0.90;;;10.30;86.40;;;;;;4978976;28;20194;-76
2023/03/10 05:40:12;;;;;;;1.25;0.98;;;10.30;86.70;;;;;;4980158;28;20634;-79
2023/03/10 05:42:38;;;;;;;1.17;1.00;;;10.30;86.60;;;;;;4978048;28;20188;-78
2023/03/10 05:45:05;;;;;;;1.05;1.00;;;10.30;86.70;;;;;;4980061;28;20190;-75
2023/03/10 05:47:32;;;;;;;3.20;1.63;;;10.30;86.70;;;;;;4976418;28;20188;-77
2023/03/10 05:49:59;;;;;;;0.98;0.98;;;10.30;86.60;;;;;;4977454;28;20611;-78
2023/03/10 05:52:25;;;;;;;0.90;0.90;;;10.40;86.60;;;;;;4981450;28;20182;-76
2023/03/10 05:54:50;;;;;;;1.00;1.00;;;10.40;86.70;;;;;;4975950;28;20204;-77
2023/03/10 05:57:16;;;;;;;1.13;1.13;;;10.50;86.60;;;;;;4980713;28;20186;-77
2023/03/10 05:59:42;;;;;;;1.52;1.42;;;10.50;86.60;;;;;;4975436;28;20224;-77
2023/03/10 06:02:08;;;;;;;1.55;1.30;;;10.50;86.60;;;;;;4960333;28;20194;-79
2023/03/10 06:04:34;;;;;;;2.03;1.17;;;10.50;86.70;;;;;;4975514;28;20177;-79
2023/03/10 06:07:00;;;;;;;1.20;0.82;;;10.60;86.80;;;;;;4979536;28;20601;-79
2023/03/10 06:09:27;;;;;;;2.28;1.05;;;10.60;86.70;;;;;;4979760;28;20274;-80
2023/03/10 06:11:53;;;;;;;1.42;1.05;;;10.60;86.80;;;;;;4979408;28;20252;-79
2023/03/10 06:14:19;;;;;;;2.83;1.27;;;10.70;86.70;;;;;;4975098;28;20265;-79
2023/03/10 06:16:50;;;;;;;6.47;1.02;;;10.80;86.60;;;;;;4980081;28;20182;-79
2023/03/10 06:19:16;;;;;;;0.98;0.98;;;10.90;86.70;;;;;;4982053;28;20264;-79
2023/03/10 06:21:42;;;;;;;2.55;1.48;;;10.90;86.40;;;;;;4974464;28;20186;-79
2023/03/10 06:24:08;;;;;;;0.85;0.85;;;11.00;86.30;;;;;;4980144;28;20707;-78
2023/03/10 06:26:34;;;;;;;1.27;1.17;;;11.10;86.20;;;;;;4980554;28;20186;-78
2023/03/10 06:28:59;;;;;;;0.90;0.90;;;11.20;85.90;;;;;;4981013;28;20813;-79
2023/03/10 06:31:25;;;;;;;1.15;1.05;;;11.20;85.70;;;;;;4974358;28;20248;-78
2023/03/10 06:33:52;;;;;;;2.05;0.85;;;11.30;85.30;;;;;;4975009;28;20227;-79
2023/03/10 06:36:18;;;;;;;0.57;0.57;;;11.40;85.20;;;;;;4979105;28;20278;-79
2023/03/10 06:38:45;;;;;;;0.73;0.73;;;11.50;85.10;;;;;;4978584;28;20312;-78
2023/03/10 06:41:11;;;;;;;1.48;1.08;;;11.50;85.10;;;;;;4978476;28;20201;-80
2023/03/10 06:43:39;;;;;;;0.90;0.90;;;11.60;85.00;;;;;;4977358;28;20281;-78
2023/03/10 06:46:08;;;;;;;1.30;1.10;;;11.70;84.30;;;;;;4976160;28;20222;-79
2023/03/10 06:48:35;;;;;;;2.25;1.10;;;11.80;84.30;;;;;;4972845;28;20255;-80
2023/03/10 06:51:05;;;;;;;1.08;1.08;;;11.80;84.10;;;;;;4977586;28;20273;-79
2023/03/10 06:53:30;;;;;;;1.55;1.30;;;11.90;83.90;;;;;;4977382;28;20198;-79
2023/03/10 06:56:05;;;;;;;1.17;1.17;;;12.00;83.70;;;;;;4975958;28;20178;-79
2023/03/10 06:58:34;;;;;;;0.85;0.85;;;12.10;83.30;;;;;;4979948;28;20738;-79
2023/03/10 07:01:00;;;;;;;3.95;1.08;;;12.10;82.80;;;;;;4976424;28;20240;-79
2023/03/10 07:03:27;;;;;;;1.10;1.10;;;12.20;82.60;;;;;;4976834;28;20745;-80
2023/03/10 07:05:54;;;;;;;1.08;1.00;;;12.20;82.10;;;;;;4961113;28;20765;-79
2023/03/10 07:08:20;;;;;;;0.95;0.95;;;12.30;81.80;;;;;;4981051;28;20247;-78
2023/03/10 07:10:45;;;;;;;0.85;0.85;;;12.20;82.00;;;;;;4980269;28;20190;-78
2023/03/10 07:13:14;;;;;;;1.02;0.82;;;12.30;82.10;;;;;;4980052;28;20187;-79
2023/03/10 07:15:41;;;;;;;1.05;1.05;;;12.30;81.60;;;;;;4979178;28;20241;-78
2023/03/10 07:18:07;;;;;;;1.70;1.23;;;12.30;81.70;;;;;;4972721;28;20651;-78
2023/03/10 07:20:32;;;;;;;1.25;1.25;;;12.30;82.00;;;;;;4978757;28;20229;-78
2023/03/10 07:22:58;;;;;;;1.67;1.48;;;12.40;82.00;;;;;;4974551;28;20191;-79
2023/03/10 07:25:24;;;;;;;1.13;1.13;;;12.50;82.10;;;;;;4978212;28;20213;-79
2023/03/10 07:27:51;;;;;;;2.65;1.45;;;12.60;82.00;;;;;;4976793;28;20194;-78
2023/03/10 07:30:16;;;;;;;1.35;1.35;;;12.70;81.20;;;;;;4974349;28;20224;-78
2023/03/10 07:32:42;;;;;;;1.25;1.15;;;12.80;80.80;;;;;;4979363;28;20190;-77
2023/03/10 07:35:09;;;;;;;1.35;1.35;;;13.00;80.70;;;;;;4970538;28;20186;-78
2023/03/10 07:37:39;;;;;;;1.15;1.15;;;13.10;80.20;;;;;;4975746;28;20183;-77
2023/03/10 07:40:07;;;;;;;5.80;0.98;;;13.20;80.00;;;;;;4978690;28;20214;-78
2023/03/10 07:42:32;;;;;;;1.13;1.02;;;13.30;79.70;;;;;;4978542;28;20600;-76
2023/03/10 07:44:58;;;;;;;0.95;0.95;;;13.40;79.40;;;;;;4975378;28;20206;-79
2023/03/10 07:47:24;;;;;;;1.95;0.90;;;13.60;79.00;;;;;;4976524;28;20190;-80
2023/03/10 07:49:50;;;;;;;0.80;0.80;;;13.80;78.70;;;;;;4976727;28;20225;-79
2023/03/10 07:52:17;;;;;;;0.70;0.70;;;13.90;78.30;;;;;;4976131;28;20193;-78
2023/03/10 07:54:45;;;;;;;0.95;0.82;;;14.10;77.30;;;;;;4973431;28;20664;-77
2023/03/10 07:57:14;;;;;;;0.80;0.80;;;14.30;76.90;;;;;;4973062;28;20185;-78
2023/03/10 07:59:41;;;;;;;0.55;0.55;;;14.50;76.40;;;;;;4977489;28;20421;-78
2023/03/10 08:02:09;;;;;;;1.05;0.70;;;14.60;76.00;;;;;;4975298;28;20193;-78
2023/03/10 08:04:35;;;;;;;0.57;0.57;;;14.80;75.60;;;;;;4976483;28;20874;-78
2023/03/10 08:07:01;;;;;;;0.98;0.98;;;14.90;75.40;;;;;;4977840;28;20238;-78
2023/03/10 08:09:28;;;;;;;1.13;1.00;;;15.10;75.30;;;;;;4973720;28;20189;-77
2023/03/10 08:11:57;;;;;;;0.55;0.55;;;15.10;74.70;;;;;;4976590;28;20190;-78
2023/03/10 08:14:23;;;;;;;4.95;0.57;;;15.00;74.60;;;;;;4973185;28;20214;-78
2023/03/10 08:16:50;;;;;;;0.70;0.70;;;15.00;74.90;;;;;;4972981;28;20734;-79
2023/03/10 08:19:16;;;;;;;0.57;0.55;;;15.00;75.00;;;;;;4977178;28;20230;-77
2023/03/10 08:21:42;;;;;;;0.40;0.40;;;15.00;75.00;;;;;;4956124;28;20190;-77
2023/03/10 08:24:09;;;;;;;0.98;0.68;;;15.00;75.10;;;;;;4969939;28;20201;-78
2023/03/10 08:26:35;;;;;;;2.05;0.77;;;15.00;74.90;;;;;;4973711;28;20260;-78
2023/03/10 08:29:01;;;;;;;0.80;0.50;;;15.00;74.80;;;;;;4974078;28;20194;-79
2023/03/10 08:31:26;;;;;;;0.45;0.45;;;15.10;74.80;;;;;;4971957;28;20550;-77
2023/03/10 08:33:56;;;;;;;0.55;0.55;;;15.20;75.20;;;;;;4971781;28;20331;-78
2023/03/10 08:36:24;;;;;;;0.68;0.50;;;15.40;74.80;;;;;;4975041;28;20247;-79
2023/03/10 08:38:54;;;;;;;0.45;0.45;;;15.60;74.30;;;;;;4977952;28;20303;-79
2023/03/10 08:41:24;;;;;;;0.60;0.60;;;15.80;73.60;;;;;;4974247;28;20267;-80
2023/03/10 08:43:51;;;;;;;0.80;0.80;;;15.90;73.40;;;;;;4979710;28;20205;-78
2023/03/10 08:46:18;;;;;;;0.60;0.60;;;15.90;72.80;;;;;;4974742;28;20232;-79
2023/03/10 08:48:45;;;;;;;2.25;0.73;;;16.10;73.00;;;;;;4974029;28;20213;-79
2023/03/10 08:51:11;;;;;;;0.93;0.68;;;16.50;73.30;;;;;;4973175;28;20627;-79
2023/03/10 08:53:38;;;;;;;1.00;0.93;;;17.30;72.00;;;;;;4978375;28;20208;-83
2023/03/10 08:56:04;;;;;;;1.55;0.90;;;18.30;70.50;;;;;;4973618;28;20182;-82
2023/03/10 08:58:30;;;;;;;1.85;0.77;;;19.00;67.90;;;;;;4980886;28;20221;-81
2023/03/10 09:00:56;;;;;;;0.80;0.80;;;19.50;66.40;;;;;;4979365;28;20185;-77
2023/03/10 09:03:22;;;;;;;0.60;0.60;;;19.90;65.50;;;;;;4977407;28;20187;-77
2023/03/10 09:05:47;;;;;;;2.13;1.08;;;20.20;64.70;;;;;;4978714;28;20730;-78
2023/03/10 09:08:13;;;;;;;0.90;0.90;;;20.50;63.90;;;;;;4982455;28;20213;-77
2023/03/10 09:10:41;;;;;;;0.80;0.80;;;20.70;63.70;;;;;;4981653;28;20186;-78
2023/03/10 09:13:07;;;;;;;5.20;1.58;;;20.60;63.20;;;;;;4979262;28;20241;-78
2023/03/10 09:15:34;;;;;;;1.70;0.93;;;20.50;62.90;;;;;;4979414;28;20190;-78
2023/03/10 09:18:03;;;;;;;1.30;1.17;;;20.20;63.50;;;;;;4979941;28;20182;-78
2023/03/10 09:20:28;;;;;;;0.95;0.95;;;20.00;64.00;;;;;;4980028;28;20646;-78
2023/03/10 09:22:55;;;;;;;0.90;0.90;;;19.80;63.80;;;;;;4978016;28;20192;-77
2023/03/10 09:25:22;;;;;;;0.90;0.80;;;19.70;64.00;;;;;;4977329;28;20213;-78
2023/03/10 09:27:48;;;;;;;1.15;1.15;;;19.50;64.50;;;;;;4981698;28;20194;-77
2023/03/10 09:30:14;;;;;;;0.98;0.80;;;19.40;64.50;;;;;;4981495;28;20236;-79
2023/03/10 09:32:40;;;;;;;0.82;0.82;;;19.40;64.50;;;;;;4996318;28;20189;-80
2023/03/10 09:35:07;;;;;;;1.25;0.82;;;19.40;64.50;;;;;;5007780;28;20189;-79
2023/03/10 09:37:32;;;;;;;1.10;1.05;;;19.20;64.70;;;;;;5005955;28;20213;-78
2023/03/10 09:39:58;;;;;;;1.60;1.23;;;19.10;64.70;;;;;;5006233;28;20246;-77
2023/03/10 09:42:36;;;;;;;0.98;0.98;;;18.90;65.30;;;;;;5006943;28;20222;-77
2023/03/10 09:45:19;;;;;;;1.80;1.13;;;18.60;65.90;;;;;;4981977;28;20597;-79
2023/03/10 09:48:06;;;;;;;1.40;1.30;;;18.40;66.50;;;;;;4980785;28;20221;-78
2023/03/10 09:50:39;;;;;;;1.98;0.90;;;18.10;66.90;;;;;;4977922;28;20316;-79
2023/03/10 09:53:24;;;;;;;1.20;1.10;;;17.80;67.50;;;;;;4974822;28;20544;-79
2023/03/10 09:55:50;;;;;;;1.20;1.10;;;17.60;68.00;;;;;;4975267;28;20197;-78
2023/03/10 09:58:19;;;;;;;1.52;1.52;;;17.40;68.40;;;;;;4976046;28;20800;-79
2023/03/10 10:00:45;;;;;;;2.97;1.73;;;17.20;68.70;;;;;;4976937;28;20193;-79
2023/03/10 10:03:27;;;;;;;1.85;1.73;;;17.10;69.30;;;;;;4963405;28;20679;-79
2023/03/10 10:05:54;;;;;;;1.98;1.40;;;16.90;69.80;;;;;;4980167;28;20276;-79
2023/03/10 10:08:27;;;;;;;1.58;1.50;;;16.80;70.20;;;;;;4978538;28;20261;-79
2023/03/10 10:10:58;;;;;;;1.52;1.52;;;16.70;70.40;;;;;;4956161;28;20735;-78
2023/03/10 10:13:28;;;;;;;1.80;1.70;;;16.60;70.60;;;;;;4981156;28;20216;-79
2023/03/10 10:16:21;;;;;;;1.70;1.60;;;16.60;70.60;;;;;;4976714;28;20193;-78
2023/03/10 10:18:57;;;;;;;2.15;1.55;;;16.60;70.90;;;;;;4979051;28;20218;-78
2023/03/10 10:21:57;;;;;;;2.00;1.88;;;16.50;71.20;;;;;;4978140;28;20193;-78
2023/03/10 10:24:23;;;;;;;1.48;1.30;;;16.50;71.30;;;;;;4977573;28;20694;-78
2023/03/10 10:26:50;;;;;;;1.70;1.70;;;16.50;71.70;;;;;;4975759;28;20177;-79
2023/03/10 10:29:18;;;;;;;1.60;1.50;;;16.50;71.70;;;;;;4962953;28;20193;-78
2023/03/10 10:32:06;;;;;;;1.63;1.52;;;16.50;71.80;;;;;;4979317;28;20194;-78
2023/03/10 10:34:33;;;;;;;3.45;1.35;;;16.40;72.20;;;;;;4979620;28;20244;-83
2023/03/10 10:37:00;;;;;;;5.32;1.33;;;16.40;72.20;;;;;;4976836;28;20205;-79
2023/03/10 10:39:40;;;;;;;2.53;1.73;;;16.40;71.90;;;;;;4977622;28;20244;-78
2023/03/10 10:42:24;;;;;;;1.27;1.05;;;16.30;72.20;;;;;;4975507;28;20634;-79
2023/03/10 10:44:56;;;;;;;1.30;1.30;;;16.30;71.70;;;;;;4977896;28;21122;-77
2023/03/10 10:47:33;;;;;;;1.20;1.20;;;16.20;71.80;;;;;;4957682;28;20665;-79
2023/03/10 10:50:24;;;;;;;1.45;1.35;;;16.10;72.20;;;;;;4979671;28;20256;-80
2023/03/10 10:53:14;;;;;;;1.10;1.10;;;16.10;72.20;;;;;;4978295;28;20663;-80
2023/03/10 10:55:41;;;;;;;1.63;1.42;;;16.00;72.20;;;;;;4931796;29;20208;-79
2023/03/10 10:58:27;;;;;;;1.63;1.58;;;16.00;72.40;;;;;;4931977;29;20637;-79
2023/03/10 11:00:59;;;;;;;1.85;1.10;;;16.00;72.70;;;;;;4930958;29;20219;-79
2023/03/10 11:03:30;;;;;;;2.30;1.30;;;15.90;71.60;;;;;;4930366;29;20195;-77
2023/03/10 11:05:56;;;;;;;2.00;1.40;;;15.90;73.00;;;;;;4938048;29;20194;-77
2023/03/10 11:08:41;;;;;;;1.38;1.00;;;15.90;72.60;;;;;;4929772;29;20755;-78
2023/03/10 11:11:33;;;;;;;1.52;1.40;;;15.90;72.80;;;;;;4923096;29;20803;-77
2023/03/10 11:14:05;;;;;;;2.75;0.98;;;15.80;73.30;;;;;;4933441;29;20203;-77
2023/03/10 11:16:54;;;;;;;1.20;1.08;;;15.80;73.80;;;;;;4927150;29;20191;-77
2023/03/10 11:20:00;;;;;;;1.02;1.02;;;15.80;73.40;;;;;;4933867;29;20226;-78
2023/03/10 11:22:41;;;;;;;2.65;1.05;;;15.80;73.80;;;;;;4931381;29;20666;-77
2023/03/10 11:25:18;;;;;;;1.23;1.15;;;15.90;74.10;;;;;;4927272;29;20226;-78
2023/03/10 11:28:01;;;;;;;1.08;0.70;;;15.80;73.40;;;;;;4921030;29;20636;-76
2023/03/10 11:30:31;;;;;;;1.17;0.52;;;15.80;73.80;;;;;;4910165;29;20787;-77
2023/03/10 11:33:23;;;;;;;2.58;0.40;;;15.90;73.50;;;;;;4957159;28;20193;-77
2023/03/10 11:35:58;;;;;;;1.55;0.70;;;16.00;72.90;;;;;;4974406;28;20186;-77
2023/03/10 11:38:27;;;;;;;0.60;0.60;;;16.10;73.00;;;;;;4977144;28;20185;-77
2023/03/10 11:40:56;;;;;;;0.50;0.50;;;16.20;72.70;;;;;;4974677;28;20240;-77
2023/03/10 11:43:29;;;;;;;0.55;0.43;;;16.30;72.40;;;;;;4978681;28;20189;-77
2023/03/10 11:45:59;;;;;;;0.30;0.30;;;16.40;71.70;;;;;;4975857;28;20198;-76
2023/03/10 11:48:46;;;;;;;0.63;0.40;;;16.20;70.90;;;;;;4973786;28;20182;-77
2023/03/10 11:51:36;;;;;;;0.30;0.30;;;16.20;71.40;;;;;;4977972;28;20684;-77
2023/03/10 11:54:13;;;;;;;0.40;0.40;;;16.00;71.80;;;;;;4973556;28;20191;-76
2023/03/10 11:56:40;;;;;;;0.40;0.40;;;16.00;72.30;;;;;;4975239;28;20189;-77
2023/03/10 11:59:17;;;;;;;0.20;0.20;;;16.10;72.20;;;;;;4974476;28;20212;-77
2023/03/10 12:01:51;;;;;;;0.20;0.20;;;16.10;71.90;;;;;;4972126;28;20195;-77
2023/03/10 12:04:42;;;;;;;0.20;0.20;;;16.20;71.40;;;;;;4976889;28;20589;-78
2023/03/10 12:07:24;;;;;;;0.30;0.30;;;16.20;70.70;;;;;;4976319;28;20589;-78
2023/03/10 12:09:53;;;;;;;0.47;0.47;;;16.20;70.90;;;;;;4975157;28;20402;-78
2023/03/10 12:12:43;;;;;;;0.85;0.85;;;16.30;71.40;;;;;;4972974;28;20193;-76
2023/03/10 12:15:21;;;;;;;1.42;1.17;;;16.40;71.90;;;;;;4977365;28;20189;-77
2023/03/10 12:17:48;;;;;;;1.73;1.65;;;16.40;72.30;;;;;;4977073;28;20182;-77
2023/03/10 12:20:16;;;;;;;5.70;2.28;;;16.40;73.20;;;;;;4980659;28;20233;-77
2023/03/10 12:22:51;;;;;;;5.60;1.95;;;16.40;74.00;;;;;;4979299;28;20189;-78
2023/03/10 12:25:34;;;;;;;3.75;1.85;;;16.50;74.50;;;;;;4974740;28;20263;-77
2023/03/10 12:28:26;;;;;;;2.92;2.22;;;16.80;73.90;;;;;;4976892;28;20181;-77
2023/03/10 12:30:56;;;;;;;1.55;1.25;;;17.10;73.50;;;;;;4968191;28;20246;-78
2023/03/10 12:33:32;;;;;;;1.38;1.33;;;17.30;72.40;;;;;;4973917;28;20186;-76
2023/03/10 12:36:20;;;;;;;1.17;1.00;;;17.30;72.00;;;;;;4978405;28;20213;-77
2023/03/10 12:38:58;;;;;;;0.85;0.75;;;17.20;72.50;;;;;;4974296;28;20320;-78
2023/03/10 12:41:27;;;;;;;0.57;0.57;;;17.30;72.40;;;;;;4978685;28;20213;-78
2023/03/10 12:43:58;;;;;;;0.55;0.55;;;17.30;71.20;;;;;;4977978;28;20186;-77
2023/03/10 12:46:47;;;;;;;0.60;0.60;;;17.20;71.60;;;;;;4959058;28;20665;-78
2023/03/10 12:49:26;;;;;;;0.55;0.55;;;17.20;71.70;;;;;;4958234;28;20244;-77
2023/03/10 12:52:10;;;;;;;0.30;0.30;;;17.30;71.50;;;;;;4977469;28;20196;-76
2023/03/10 12:54:57;;;;;;;0.30;0.30;;;17.20;70.70;;;;;;4976465;28;20200;-77
2023/03/10 12:57:53;;;;;;;0.35;0.35;;;17.10;71.00;;;;;;4974808;28;20181;-78
2023/03/10 13:00:43;;;;;;;0.20;0.20;;;16.90;71.10;;;;;;4977225;28;20762;-78
2023/03/10 13:03:08;;;;;;;0.30;0.30;;;16.70;71.60;;;;;;4959280;28;20597;-78